Tulare, CA

1:52 PM PST on February 27, 2015 (GMT -0800)
Hanford Municipal | Change Station
CLOSE
Current Station
Airport
Location: Hanford,
Elevation: 243 ft
Nearby Weather Stations

Elev 243 ft 36.32 °N, 119.63 °W | Updated 59 minutes ago

Clear
Clear
67 °F
Feels Like 67 °F
N
6
Wind Variable Wind from WNW

Today
High -- | Low -- °F
--% Chance of Precip.
Yesterday
High -- | Low -- °F
Precip. -- in
6:30 AM 5:50 PM
Waxing Gibbous, 72% visible
Pressure 29.80 in
Visibility 7.0 miles
Clouds Scattered Clouds 7500 ft
Dew Point 45 °F
Humidity 45%
Rainfall 0.00 in
Snow Depth Not available.
UV 5 out of 12
Pollen 7.80 out of 12
Air Quality Not available.
Flu Activity Not available.
METAR KHJO 272053Z AUTO 29005KT 7SM SCT075 19/07 A2979 RMK AO2 SLP090 T01940072 58024

More Conditions Fewer Conditions

Pressure 29.80 in
Visibility 7.0 miles
Clouds Scattered Clouds 7500 ft
Dew Point 45 °F
Humidity 45%
Rainfall 0.00 in
Snow Depth Not available.
UV 5 out of 12
Pollen 7.80 out of 12
Air Quality Not available.
Flu Activity Not available.
METAR KHJO 272053Z AUTO 29005KT 7SM SCT075 19/07 A2979 RMK AO2 SLP090 T01940072 58024

More Conditions Fewer Conditions

10-Day Weather Forecast

Almanac

Astronomy

Feb. 27, 2015 Rise Set
Actual Time
Civil Twilight
Nautical Twilight
Astronomical Twilight
Moon
Length of Visible Light
Length of Day
Tomorrow will be .
, % of the Moon is Illuminated

Today's Extremes

State Highs State Lows

Community

WunderPhotos

Upload Photos

1,800,844 photos uploaded!

WunderBlogs® & News

Nearby

Air Quality

  Air Quality AQ Index Pollutant
Not available.

Snow Depth

Station Depth Elevation

Earthquake Activity

City Distance Mag. Time & Date
Minimum magnitude displayed is 2.5.

Coastal Water Temperatures

Place Temperature

Nearby Weather Stations